createdAt,value
2019-03-19T00:00:30.500Z,1.10
2019-03-19T00:03:03.455Z,1.70
2019-03-19T00:05:35.326Z,1.57
2019-03-19T00:08:06.996Z,1.63
2019-03-19T00:10:38.303Z,1.60
2019-03-19T00:13:09.650Z,1.70
2019-03-19T00:15:41.021Z,1.43
2019-03-19T00:18:12.595Z,1.40
2019-03-19T00:20:44.037Z,1.52
2019-03-19T00:23:15.713Z,2.70
2019-03-19T00:25:47.459Z,2.00
2019-03-19T00:28:19.575Z,1.97
2019-03-19T00:30:52.220Z,1.72
2019-03-19T00:33:23.536Z,1.67
2019-03-19T00:35:55.764Z,1.70
2019-03-19T00:38:27.522Z,1.75
2019-03-19T00:40:59.677Z,1.90
2019-03-19T00:43:31.661Z,1.97
2019-03-19T00:46:03.506Z,1.83
2019-03-19T00:48:34.780Z,2.00
2019-03-19T00:51:06.722Z,2.07
2019-03-19T00:53:38.506Z,2.00
2019-03-19T00:56:10.043Z,2.40
2019-03-19T00:58:42.178Z,1.50
2019-03-19T01:01:14.114Z,1.83
2019-03-19T01:03:45.484Z,1.93
2019-03-19T01:06:17.111Z,1.53
2019-03-19T01:08:49.179Z,1.27
2019-03-19T01:11:20.555Z,1.90
2019-03-19T01:13:51.904Z,1.70
2019-03-19T01:16:23.261Z,2.13
2019-03-19T01:18:54.831Z,2.77
2019-03-19T01:21:26.279Z,1.57
2019-03-19T01:23:57.906Z,1.40
2019-03-19T01:26:29.285Z,1.93
2019-03-19T01:29:01.706Z,1.98
2019-03-19T01:31:35.007Z,1.67
2019-03-19T01:34:06.690Z,2.45
2019-03-19T01:36:38.338Z,1.80
2019-03-19T01:39:09.792Z,1.50
2019-03-19T01:41:41.496Z,2.90
2019-03-19T01:44:12.796Z,2.03
2019-03-19T01:46:44.289Z,1.50
2019-03-19T01:49:15.984Z,1.50
2019-03-19T01:51:50.712Z,1.80
2019-03-19T01:54:22.287Z,2.20
2019-03-19T01:56:53.575Z,1.47
2019-03-19T01:59:24.961Z,1.97
2019-03-19T02:01:56.606Z,1.80
2019-03-19T02:04:27.920Z,1.70
2019-03-19T02:06:59.631Z,1.53
2019-03-19T02:09:31.669Z,1.70
2019-03-19T02:12:03.021Z,2.00
2019-03-19T02:14:34.351Z,1.60
2019-03-19T02:17:05.851Z,1.57
2019-03-19T02:19:38.447Z,2.00
2019-03-19T02:22:09.923Z,1.67
2019-03-19T02:24:41.709Z,2.73
2019-03-19T02:27:13.784Z,1.60
2019-03-19T02:29:45.095Z,2.20
2019-03-19T02:32:17.535Z,1.60
2019-03-19T02:34:49.538Z,2.20
2019-03-19T02:37:20.900Z,1.60
2019-03-19T02:39:53.645Z,1.73
2019-03-19T02:42:25.337Z,1.72
2019-03-19T02:44:57.005Z,1.50
2019-03-19T02:47:28.482Z,2.40
2019-03-19T02:50:00.380Z,1.70
2019-03-19T02:52:31.773Z,2.00
2019-03-19T02:55:03.144Z,2.70
2019-03-19T02:57:35.049Z,2.00
2019-03-19T03:00:07.540Z,1.73
2019-03-19T03:02:39.983Z,1.80
2019-03-19T03:05:13.730Z,2.57
2019-03-19T03:07:45.851Z,1.67
2019-03-19T03:10:19.020Z,2.03
2019-03-19T03:12:53.001Z,2.03
2019-03-19T03:15:24.942Z,1.90
2019-03-19T03:17:56.964Z,2.40
2019-03-19T03:20:28.638Z,1.87
2019-03-19T03:23:00.385Z,2.00
2019-03-19T03:25:31.840Z,1.50
2019-03-19T03:28:03.074Z,1.90
2019-03-19T03:30:34.315Z,2.10
2019-03-19T03:33:05.893Z,2.33
2019-03-19T03:35:37.529Z,1.70
2019-03-19T03:38:08.799Z,1.73
2019-03-19T03:40:40.153Z,2.00
2019-03-19T03:43:12.376Z,1.93
2019-03-19T03:45:43.974Z,2.45
2019-03-19T03:48:15.691Z,2.27
2019-03-19T03:50:48.713Z,1.67
2019-03-19T03:53:19.935Z,2.13
2019-03-19T04:02:04.458Z,2.43
2019-03-19T04:04:35.962Z,2.63
2019-03-19T04:07:07.235Z,1.70
2019-03-19T04:09:38.495Z,1.73
2019-03-19T04:12:09.996Z,2.00
2019-03-19T04:14:42.381Z,2.87
2019-03-19T04:17:14.340Z,2.37
2019-03-19T04:19:45.911Z,2.10
2019-03-19T04:22:17.432Z,1.85
2019-03-19T04:24:49.291Z,2.17
2019-03-19T04:27:20.828Z,2.53
2019-03-19T04:29:52.064Z,2.10
2019-03-19T04:32:23.349Z,3.33
2019-03-19T04:34:55.200Z,2.17
2019-03-19T04:37:26.472Z,2.07
2019-03-19T04:39:58.046Z,2.67
2019-03-19T04:42:29.301Z,2.93
2019-03-19T04:45:00.961Z,2.67
2019-03-19T04:47:32.617Z,2.50
2019-03-19T04:50:04.799Z,2.80
2019-03-19T04:52:36.326Z,2.47
2019-03-19T04:55:08.451Z,2.27
2019-03-19T04:57:39.654Z,2.90
2019-03-19T05:00:11.688Z,3.57
2019-03-19T05:02:44.195Z,3.20
2019-03-19T05:05:15.814Z,2.67
2019-03-19T05:07:47.043Z,2.67
2019-03-19T05:10:18.333Z,2.70
2019-03-19T05:12:49.571Z,3.40
2019-03-19T05:15:20.782Z,3.07
2019-03-19T05:17:53.082Z,3.10
2019-03-19T05:20:24.349Z,2.90
2019-03-19T05:22:55.561Z,2.87
2019-03-19T05:25:26.806Z,2.67
2019-03-19T05:27:58.328Z,2.75
2019-03-19T05:30:34.314Z,3.20
2019-03-19T05:33:06.532Z,2.80
2019-03-19T05:35:37.733Z,3.33
2019-03-19T05:38:08.959Z,2.93
2019-03-19T05:40:41.503Z,3.60
2019-03-19T05:43:12.685Z,2.93
2019-03-19T05:45:45.042Z,3.70
2019-03-19T05:48:16.299Z,3.17
2019-03-19T05:50:47.832Z,4.30
2019-03-19T05:53:19.346Z,3.20
2019-03-19T05:55:50.661Z,3.70
2019-03-19T05:58:22.033Z,3.50
2019-03-19T06:00:54.465Z,3.63
2019-03-19T06:03:26.391Z,3.90
2019-03-19T06:05:57.621Z,8.10
2019-03-19T06:08:29.408Z,3.80
2019-03-19T06:11:00.718Z,4.17
2019-03-19T06:13:32.867Z,3.17
2019-03-19T06:16:04.418Z,3.33
2019-03-19T06:18:35.863Z,3.17
2019-03-19T06:21:07.255Z,3.60
2019-03-19T06:23:38.495Z,3.10
2019-03-19T06:26:10.003Z,3.30
2019-03-19T06:28:41.245Z,3.20
2019-03-19T06:31:12.460Z,3.00
2019-03-19T06:33:44.413Z,2.60
2019-03-19T06:36:15.664Z,2.90
2019-03-19T06:38:47.568Z,2.93
2019-03-19T06:41:18.812Z,2.50
2019-03-19T06:43:50.010Z,2.83
2019-03-19T06:46:21.538Z,3.70
2019-03-19T06:48:53.551Z,2.90
2019-03-19T06:51:25.504Z,3.13
2019-03-19T06:53:57.079Z,2.63
2019-03-19T06:56:28.624Z,2.90
2019-03-19T06:59:00.448Z,3.23
2019-03-19T07:01:32.296Z,2.70
2019-03-19T07:04:03.668Z,2.70
2019-03-19T07:06:35.188Z,2.93
2019-03-19T07:09:09.703Z,2.83
2019-03-19T07:11:41.663Z,2.60
2019-03-19T07:14:12.926Z,3.27
2019-03-19T07:16:44.181Z,2.80
2019-03-19T07:19:15.746Z,2.80
2019-03-19T07:21:47.007Z,2.83
2019-03-19T07:24:18.881Z,2.43
2019-03-19T07:26:50.434Z,2.80
2019-03-19T07:29:21.997Z,3.20
2019-03-19T07:31:53.540Z,2.90
2019-03-19T07:34:25.019Z,3.20
2019-03-19T07:36:56.525Z,2.57
2019-03-19T07:39:27.736Z,1.93
2019-03-19T07:41:58.991Z,2.45
2019-03-19T07:44:30.576Z,2.70
2019-03-19T07:47:02.159Z,2.63
2019-03-19T07:49:33.754Z,3.10
2019-03-19T07:52:04.971Z,2.90
2019-03-19T07:54:38.384Z,2.23
2019-03-19T07:57:10.463Z,2.50
2019-03-19T07:59:42.320Z,2.93
2019-03-19T08:02:15.393Z,2.87
2019-03-19T08:04:47.072Z,2.47
2019-03-19T08:07:18.335Z,2.80
2019-03-19T08:09:49.884Z,2.50
2019-03-19T08:12:22.112Z,2.47
2019-03-19T08:14:53.879Z,2.50
2019-03-19T08:17:25.465Z,2.77
2019-03-19T08:19:57.295Z,2.60
2019-03-19T08:22:29.211Z,2.20
2019-03-19T08:25:00.762Z,2.90
2019-03-19T08:27:32.226Z,2.50
2019-03-19T08:30:03.610Z,2.50
2019-03-19T08:32:34.902Z,2.40
2019-03-19T08:35:07.143Z,2.93
2019-03-19T08:37:39.299Z,3.07
2019-03-19T08:40:12.171Z,2.40
2019-03-19T08:42:44.273Z,2.73
2019-03-19T08:45:15.735Z,2.70
2019-03-19T08:47:47.309Z,2.27
2019-03-19T08:50:18.925Z,1.90
2019-03-19T08:52:50.271Z,1.90
2019-03-19T08:55:21.494Z,2.30
2019-03-19T08:57:52.759Z,2.40
2019-03-19T09:00:24.028Z,2.50
2019-03-19T09:02:55.810Z,2.12
2019-03-19T09:05:27.747Z,2.10
2019-03-19T09:08:00.056Z,2.33
2019-03-19T09:10:31.569Z,2.20
2019-03-19T09:13:02.810Z,2.17
2019-03-19T09:15:34.413Z,2.17
2019-03-19T09:18:05.724Z,1.98
2019-03-19T09:20:37.092Z,2.00
2019-03-19T09:23:08.329Z,2.20
2019-03-19T09:25:39.545Z,1.70
2019-03-19T09:28:11.111Z,1.80
2019-03-19T09:30:42.725Z,1.43
2019-03-19T09:33:14.013Z,1.35
2019-03-19T09:35:45.379Z,1.83
2019-03-19T09:38:16.587Z,1.90
2019-03-19T09:40:48.111Z,1.70
2019-03-19T09:43:19.375Z,1.70
2019-03-19T09:45:50.573Z,1.85
2019-03-19T09:48:21.831Z,1.92
2019-03-19T09:50:53.725Z,2.50
2019-03-19T09:53:25.277Z,2.63
2019-03-19T09:55:56.866Z,2.10
2019-03-19T09:58:28.109Z,1.82
2019-03-19T10:00:59.653Z,2.33
2019-03-19T10:03:31.272Z,1.90
2019-03-19T10:06:13.655Z,1.77
2019-03-19T10:08:36.367Z,2.57
2019-03-19T10:11:08.064Z,2.03
2019-03-19T10:13:39.671Z,1.77
2019-03-19T10:16:11.359Z,1.60
2019-03-19T10:18:42.629Z,1.80
2019-03-19T10:21:13.904Z,1.60
2019-03-19T10:23:45.487Z,1.50
2019-03-19T10:26:17.331Z,4.40
2019-03-19T10:28:48.916Z,3.10
2019-03-19T10:31:20.171Z,2.65
2019-03-19T10:33:52.141Z,1.70
2019-03-19T10:36:25.258Z,1.50
2019-03-19T10:38:56.825Z,1.40
2019-03-19T10:41:28.666Z,1.63
2019-03-19T10:44:00.311Z,1.02
2019-03-19T10:46:31.872Z,1.70
2019-03-19T10:49:03.779Z,2.17
2019-03-19T10:51:35.325Z,2.00
2019-03-19T10:54:06.788Z,2.37
2019-03-19T10:56:39.033Z,2.53
2019-03-19T10:59:10.743Z,2.67
2019-03-19T11:01:42.240Z,2.10
2019-03-19T11:04:14.152Z,2.20
2019-03-19T11:06:45.821Z,2.52
2019-03-19T11:09:17.172Z,1.87
2019-03-19T11:11:48.646Z,1.70
2019-03-19T11:14:20.221Z,2.60
2019-03-19T11:16:51.654Z,2.00
2019-03-19T11:19:22.873Z,2.20
2019-03-19T11:21:54.126Z,2.50
2019-03-19T11:24:25.675Z,2.67
2019-03-19T11:26:57.231Z,2.13
2019-03-19T11:29:29.177Z,1.87
2019-03-19T11:32:01.167Z,1.20
2019-03-19T11:34:33.153Z,1.40
2019-03-19T11:37:04.922Z,2.60
2019-03-19T11:39:36.189Z,2.17
2019-03-19T11:42:08.206Z,2.55
2019-03-19T11:44:42.787Z,1.80
2019-03-19T11:47:14.310Z,2.13
2019-03-19T11:49:45.517Z,2.43
2019-03-19T11:52:17.182Z,3.23
2019-03-19T11:54:48.738Z,1.20
2019-03-19T11:57:19.975Z,1.90
2019-03-19T11:59:52.284Z,1.17
2019-03-19T12:02:26.141Z,1.10
2019-03-19T12:04:57.276Z,1.80
2019-03-19T12:07:28.787Z,1.45
2019-03-19T12:10:01.108Z,1.90
2019-03-19T12:12:32.320Z,1.30
2019-03-19T12:15:03.727Z,1.40
2019-03-19T12:17:35.016Z,1.03
2019-03-19T12:20:06.981Z,1.23
2019-03-19T12:22:38.254Z,1.50
2019-03-19T12:25:10.265Z,1.17
2019-03-19T12:27:41.502Z,1.20
2019-03-19T12:30:21.647Z,1.10
2019-03-19T12:32:46.791Z,1.00
2019-03-19T12:35:19.668Z,1.00
2019-03-19T12:37:50.955Z,1.10
2019-03-19T12:40:22.371Z,1.10
2019-03-19T12:42:53.722Z,0.93
2019-03-19T12:45:25.050Z,0.90
2019-03-19T12:47:56.272Z,1.05
2019-03-19T12:50:27.610Z,1.17
2019-03-19T12:52:59.340Z,0.83
2019-03-19T12:55:31.436Z,1.47
2019-03-19T12:58:03.191Z,0.83
2019-03-19T13:00:35.155Z,1.00
2019-03-19T13:03:07.406Z,0.90
2019-03-19T13:05:38.647Z,1.00
2019-03-19T13:08:10.707Z,1.30
2019-03-19T13:10:42.322Z,1.10
2019-03-19T13:13:13.891Z,1.37
2019-03-19T13:15:45.247Z,1.33
2019-03-19T13:18:16.777Z,0.97
2019-03-19T13:20:47.991Z,1.40
2019-03-19T13:23:19.276Z,1.70
2019-03-19T13:25:50.845Z,1.37
2019-03-19T13:28:22.365Z,1.25
2019-03-19T13:30:53.643Z,1.63
2019-03-19T13:33:25.206Z,1.30
2019-03-19T13:35:56.449Z,1.10
2019-03-19T13:38:27.686Z,0.98
2019-03-19T13:40:58.939Z,1.00
2019-03-19T13:43:30.122Z,1.22
2019-03-19T13:46:02.011Z,0.93
2019-03-19T13:48:34.131Z,0.77
2019-03-19T13:51:06.109Z,1.17
2019-03-19T13:53:37.345Z,1.10
2019-03-19T13:56:08.652Z,1.20
2019-03-19T13:58:39.864Z,1.20
2019-03-19T14:01:11.107Z,1.33
2019-03-19T14:03:42.431Z,1.20
2019-03-19T14:06:14.777Z,1.10
2019-03-19T14:08:46.126Z,1.20
2019-03-19T14:11:17.882Z,1.43
2019-03-19T14:13:49.714Z,1.07
2019-03-19T14:16:20.954Z,1.27
2019-03-19T14:18:52.422Z,1.23
2019-03-19T14:21:23.963Z,1.20
2019-03-19T14:23:55.820Z,0.95
2019-03-19T14:26:27.012Z,0.97
2019-03-19T14:28:58.196Z,1.03
2019-03-19T14:31:29.436Z,0.93
2019-03-19T14:34:02.767Z,1.20
2019-03-19T14:36:34.145Z,1.00
2019-03-19T14:39:08.313Z,1.25
2019-03-19T14:41:40.156Z,1.10
2019-03-19T14:44:11.732Z,1.50
2019-03-19T14:46:42.990Z,1.17
2019-03-19T14:49:14.202Z,0.90
2019-03-19T14:51:45.474Z,0.93
2019-03-19T14:54:16.698Z,0.90
2019-03-19T14:56:47.932Z,1.10
2019-03-19T14:59:19.163Z,1.27
2019-03-19T15:01:50.724Z,1.13
2019-03-19T15:04:22.011Z,1.30
2019-03-19T15:06:53.856Z,0.88
2019-03-19T15:09:25.140Z,0.80
2019-03-19T15:11:56.355Z,1.00
2019-03-19T15:14:27.574Z,1.00
2019-03-19T15:17:04.851Z,0.90
2019-03-19T15:19:32.330Z,0.93
2019-03-19T15:22:03.670Z,1.30
2019-03-19T15:24:34.910Z,1.30
2019-03-19T15:27:06.211Z,1.10
2019-03-19T15:29:37.968Z,0.98
2019-03-19T15:32:09.793Z,0.80
2019-03-19T15:34:41.019Z,1.00
2019-03-19T15:37:12.220Z,0.70
2019-03-19T15:39:43.550Z,1.13
2019-03-19T15:42:14.792Z,0.70
2019-03-19T15:44:46.336Z,0.80
2019-03-19T15:47:18.188Z,0.93
2019-03-19T15:49:49.411Z,0.93
2019-03-19T15:52:20.954Z,0.73
2019-03-19T15:54:52.225Z,0.80
2019-03-19T15:57:24.126Z,0.67
2019-03-19T15:59:55.319Z,0.90
2019-03-19T16:02:26.599Z,0.80
2019-03-19T16:04:58.126Z,0.70
2019-03-19T16:07:29.732Z,0.87
2019-03-19T16:10:01.144Z,0.90
2019-03-19T16:12:32.683Z,0.90
2019-03-19T16:15:04.576Z,1.27
2019-03-19T16:17:36.131Z,0.70
2019-03-19T16:20:10.068Z,0.90
2019-03-19T16:22:41.296Z,1.07
2019-03-19T16:25:13.170Z,1.10
2019-03-19T16:27:44.818Z,0.80
2019-03-19T16:30:16.707Z,0.90
2019-03-19T16:32:48.019Z,1.07
2019-03-19T16:35:19.228Z,1.40
2019-03-19T16:37:50.506Z,1.02
2019-03-19T16:40:22.433Z,1.10
2019-03-19T16:42:53.675Z,0.80
2019-03-19T16:45:24.902Z,0.87
2019-03-19T16:47:56.159Z,1.00
2019-03-19T16:50:27.532Z,1.37
2019-03-19T16:52:59.065Z,1.90
2019-03-19T16:55:30.442Z,1.20
2019-03-19T16:58:02.292Z,1.60
2019-03-19T17:00:33.868Z,1.53
2019-03-19T17:03:05.446Z,1.20
2019-03-19T17:05:36.994Z,1.10
2019-03-19T17:08:08.378Z,1.20
2019-03-19T17:10:39.619Z,1.23
2019-03-19T17:13:12.503Z,1.52
2019-03-19T17:15:43.798Z,1.50
2019-03-19T17:18:15.047Z,1.40
2019-03-19T17:20:46.284Z,1.13
2019-03-19T17:23:17.482Z,0.97
2019-03-19T17:25:48.778Z,1.47
2019-03-19T17:28:22.742Z,1.50
2019-03-19T17:30:53.381Z,1.43
2019-03-19T17:33:25.547Z,1.70
2019-03-19T17:35:56.769Z,1.50
2019-03-19T17:38:28.283Z,2.07
2019-03-19T17:40:59.759Z,2.03
2019-03-19T17:43:32.806Z,2.63
2019-03-19T17:46:04.445Z,2.03
2019-03-19T17:48:35.718Z,1.97
2019-03-19T17:51:07.002Z,2.03
2019-03-19T17:53:38.817Z,2.23
2019-03-19T17:56:10.169Z,1.67
2019-03-19T17:58:41.405Z,1.90
2019-03-19T18:01:17.427Z,1.67
2019-03-19T18:03:45.896Z,2.20
2019-03-19T18:06:17.089Z,1.20
2019-03-19T18:08:48.888Z,1.75
2019-03-19T18:11:20.526Z,1.40
2019-03-19T18:13:51.758Z,1.70
2019-03-19T18:16:23.374Z,1.90
2019-03-19T18:18:54.706Z,1.70
2019-03-19T18:21:26.618Z,1.80
2019-03-19T18:23:58.470Z,2.08
2019-03-19T18:26:30.075Z,1.53
2019-03-19T18:29:02.043Z,1.50
2019-03-19T18:31:33.207Z,1.50
2019-03-19T18:34:10.274Z,1.70
2019-03-19T18:36:37.942Z,2.00
2019-03-19T18:39:10.375Z,2.00
2019-03-19T18:41:42.058Z,2.52
2019-03-19T18:44:13.316Z,2.70
2019-03-19T18:46:44.866Z,2.20
2019-03-19T18:49:16.804Z,1.80
2019-03-19T18:51:48.097Z,2.40
2019-03-19T18:54:19.649Z,2.07
2019-03-19T18:56:50.938Z,2.30
2019-03-19T18:59:22.503Z,2.83
2019-03-19T19:01:53.759Z,2.77
2019-03-19T19:04:26.171Z,2.52
2019-03-19T19:06:58.129Z,2.40
2019-03-19T19:09:29.399Z,2.37
2019-03-19T19:12:00.776Z,2.33
2019-03-19T19:14:32.508Z,2.37
2019-03-19T19:17:03.850Z,2.25
2019-03-19T19:19:35.157Z,2.50
2019-03-19T19:22:06.562Z,2.90
2019-03-19T19:24:38.376Z,2.87
2019-03-19T19:27:10.178Z,2.53
2019-03-19T19:29:41.526Z,2.57
2019-03-19T19:32:13.114Z,2.80
2019-03-19T19:34:44.871Z,3.03
2019-03-19T19:37:16.807Z,3.30
2019-03-19T19:39:48.265Z,3.27
2019-03-19T19:42:19.559Z,3.27
2019-03-19T19:44:50.975Z,2.60
2019-03-19T19:47:22.340Z,2.93
2019-03-19T19:49:53.600Z,3.00
2019-03-19T19:52:25.006Z,3.83
2019-03-19T19:54:56.295Z,4.10
2019-03-19T19:57:27.549Z,3.40
2019-03-19T20:00:01.794Z,3.20
2019-03-19T20:02:32.289Z,3.00
2019-03-19T20:05:03.839Z,3.00
2019-03-19T20:07:35.947Z,3.10
2019-03-19T20:10:10.039Z,3.13
2019-03-19T20:12:41.547Z,3.27
2019-03-19T20:15:13.458Z,3.23
2019-03-19T20:17:45.015Z,3.33
2019-03-19T20:20:18.367Z,4.03
2019-03-19T20:22:49.927Z,4.47
2019-03-19T20:25:21.212Z,3.60
2019-03-19T20:27:52.459Z,4.67
2019-03-19T20:30:23.842Z,4.80
2019-03-19T20:32:55.395Z,4.00
2019-03-19T20:35:26.966Z,5.47
2019-03-19T20:37:58.693Z,4.90
2019-03-19T20:40:30.382Z,4.87
2019-03-19T20:43:02.727Z,5.13
2019-03-19T20:45:34.435Z,5.20
2019-03-19T20:48:05.811Z,4.97
2019-03-19T20:50:37.123Z,5.87
2019-03-19T20:53:08.491Z,5.53
2019-03-19T20:55:39.777Z,5.10
2019-03-19T20:58:12.208Z,4.87
2019-03-19T21:00:43.757Z,4.80
2019-03-19T21:03:15.640Z,5.40
2019-03-19T21:05:47.340Z,5.08
2019-03-19T21:08:18.586Z,5.00
2019-03-19T21:10:50.465Z,5.13
2019-03-19T21:13:22.258Z,4.70
2019-03-19T21:15:53.810Z,4.77
2019-03-19T21:18:25.410Z,4.93
2019-03-19T21:20:57.084Z,5.27
2019-03-19T21:23:28.326Z,4.67
2019-03-19T21:25:59.583Z,5.37
2019-03-19T21:28:31.396Z,4.87
2019-03-19T21:37:27.220Z,4.70
2019-03-19T21:39:58.514Z,5.23
2019-03-19T21:42:30.276Z,4.40
2019-03-19T21:45:01.999Z,4.60
2019-03-19T21:47:33.935Z,4.13
2019-03-19T21:50:05.965Z,4.77
2019-03-19T21:52:39.208Z,4.67
2019-03-19T21:55:14.066Z,4.70
2019-03-19T21:57:45.065Z,4.36
2019-03-19T22:00:18.194Z,4.43
2019-03-19T22:02:49.858Z,3.60
2019-03-19T22:05:21.174Z,4.50
2019-03-19T22:07:53.419Z,4.23
2019-03-19T22:10:24.952Z,4.70
2019-03-19T22:12:56.248Z,4.97
2019-03-19T22:15:27.815Z,5.13
2019-03-19T22:17:59.420Z,5.43
2019-03-19T22:20:31.020Z,5.07
2019-03-19T22:23:02.688Z,4.33
2019-03-19T22:25:33.995Z,4.73
2019-03-19T22:28:05.669Z,4.20
2019-03-19T22:30:37.813Z,4.50
2019-03-19T22:33:09.518Z,4.60
2019-03-19T22:35:41.183Z,4.20
2019-03-19T22:38:12.882Z,4.43
2019-03-19T22:40:44.374Z,4.40
2019-03-19T22:43:15.639Z,4.33
2019-03-19T22:45:46.919Z,5.13
2019-03-19T23:47:25.997Z,5.77
2019-03-19T23:49:57.256Z,4.80
2019-03-19T23:52:28.902Z,5.63
2019-03-19T23:55:00.469Z,4.95
2019-03-19T23:57:32.335Z,5.55
